sensor_id;sensor_type;location;lat;lon;timestamp;P1;durP1;ratioP1;P2;durP2;ratioP2
80578;SDS011;69939;52.402;6.608;2023-09-08T00:00:34;8.18;;;4.75;;
80578;SDS011;69939;52.402;6.608;2023-09-08T00:03:03;9.45;;;5.40;;
80578;SDS011;69939;52.402;6.608;2023-09-08T00:05:33;7.55;;;5.50;;
80578;SDS011;69939;52.402;6.608;2023-09-08T00:08:02;7.18;;;4.88;;
80578;SDS011;69939;52.402;6.608;2023-09-08T00:10:32;7.47;;;4.72;;
80578;SDS011;69939;52.402;6.608;2023-09-08T00:13:06;7.93;;;6.13;;
80578;SDS011;69939;52.402;6.608;2023-09-08T00:15:35;7.07;;;5.85;;
80578;SDS011;69939;52.402;6.608;2023-09-08T00:18:05;7.20;;;5.03;;
80578;SDS011;69939;52.402;6.608;2023-09-08T00:20:35;6.93;;;5.07;;
80578;SDS011;69939;52.402;6.608;2023-09-08T00:23:04;7.75;;;5.47;;
80578;SDS011;69939;52.402;6.608;2023-09-08T00:25:33;8.18;;;5.55;;
80578;SDS011;69939;52.402;6.608;2023-09-08T00:28:05;7.68;;;5.53;;
80578;SDS011;69939;52.402;6.608;2023-09-08T00:30:34;6.60;;;4.97;;
80578;SDS011;69939;52.402;6.608;2023-09-08T00:33:04;8.77;;;5.70;;
80578;SDS011;69939;52.402;6.608;2023-09-08T00:35:34;7.43;;;5.53;;
80578;SDS011;69939;52.402;6.608;2023-09-08T00:38:03;7.97;;;5.00;;
80578;SDS011;69939;52.402;6.608;2023-09-08T00:40:32;8.27;;;5.75;;
80578;SDS011;69939;52.402;6.608;2023-09-08T00:43:07;10.52;;;6.32;;
80578;SDS011;69939;52.402;6.608;2023-09-08T00:45:36;6.88;;;5.35;;
80578;SDS011;69939;52.402;6.608;2023-09-08T00:48:10;8.27;;;5.65;;
80578;SDS011;69939;52.402;6.608;2023-09-08T00:50:43;8.75;;;5.80;;
80578;SDS011;69939;52.402;6.608;2023-09-08T00:53:12;10.30;;;5.65;;
80578;SDS011;69939;52.402;6.608;2023-09-08T00:55:42;7.65;;;5.90;;
80578;SDS011;69939;52.402;6.608;2023-09-08T00:58:16;7.00;;;5.78;;
80578;SDS011;69939;52.402;6.608;2023-09-08T01:00:46;9.75;;;6.22;;
80578;SDS011;69939;52.402;6.608;2023-09-08T01:03:16;6.75;;;5.57;;
80578;SDS011;69939;52.402;6.608;2023-09-08T01:05:45;10.77;;;6.22;;
80578;SDS011;69939;52.402;6.608;2023-09-08T01:08:18;8.82;;;6.07;;
80578;SDS011;69939;52.402;6.608;2023-09-08T01:10:52;6.88;;;5.63;;
80578;SDS011;69939;52.402;6.608;2023-09-08T01:13:24;8.95;;;6.20;;
80578;SDS011;69939;52.402;6.608;2023-09-08T01:15:54;10.15;;;6.05;;
80578;SDS011;69939;52.402;6.608;2023-09-08T01:18:23;8.70;;;6.80;;
80578;SDS011;69939;52.402;6.608;2023-09-08T01:20:59;8.88;;;5.82;;
80578;SDS011;69939;52.402;6.608;2023-09-08T01:23:58;9.73;;;6.40;;
80578;SDS011;69939;52.402;6.608;2023-09-08T01:26:52;9.10;;;5.93;;
80578;SDS011;69939;52.402;6.608;2023-09-08T01:29:21;8.02;;;5.75;;
80578;SDS011;69939;52.402;6.608;2023-09-08T01:31:51;8.75;;;6.15;;
80578;SDS011;69939;52.402;6.608;2023-09-08T01:34:20;7.70;;;6.03;;
80578;SDS011;69939;52.402;6.608;2023-09-08T01:36:50;8.52;;;6.00;;
80578;SDS011;69939;52.402;6.608;2023-09-08T01:39:19;10.02;;;6.68;;
80578;SDS011;69939;52.402;6.608;2023-09-08T01:41:54;8.38;;;5.50;;
80578;SDS011;69939;52.402;6.608;2023-09-08T01:44:24;8.27;;;6.05;;
80578;SDS011;69939;52.402;6.608;2023-09-08T01:46:53;8.80;;;5.80;;
80578;SDS011;69939;52.402;6.608;2023-09-08T01:49:23;8.40;;;5.95;;
80578;SDS011;69939;52.402;6.608;2023-09-08T01:51:52;7.88;;;6.55;;
80578;SDS011;69939;52.402;6.608;2023-09-08T01:56:55;9.27;;;6.15;;
80578;SDS011;69939;52.402;6.608;2023-09-08T01:59:26;9.43;;;6.15;;
80578;SDS011;69939;52.402;6.608;2023-09-08T02:01:55;8.38;;;5.68;;
80578;SDS011;69939;52.402;6.608;2023-09-08T02:04:28;11.85;;;6.10;;
80578;SDS011;69939;52.402;6.608;2023-09-08T02:06:59;8.82;;;6.45;;
80578;SDS011;69939;52.402;6.608;2023-09-08T02:09:32;7.88;;;5.93;;
80578;SDS011;69939;52.402;6.608;2023-09-08T02:12:05;9.43;;;6.38;;
80578;SDS011;69939;52.402;6.608;2023-09-08T02:14:37;9.80;;;6.72;;
80578;SDS011;69939;52.402;6.608;2023-09-08T02:17:09;9.68;;;7.70;;
80578;SDS011;69939;52.402;6.608;2023-09-08T02:19:38;9.52;;;6.43;;
80578;SDS011;69939;52.402;6.608;2023-09-08T02:22:08;9.60;;;6.50;;
80578;SDS011;69939;52.402;6.608;2023-09-08T02:24:40;9.43;;;6.43;;
80578;SDS011;69939;52.402;6.608;2023-09-08T02:27:12;8.15;;;6.40;;
80578;SDS011;69939;52.402;6.608;2023-09-08T02:29:41;9.30;;;6.47;;
80578;SDS011;69939;52.402;6.608;2023-09-08T02:32:10;10.63;;;6.97;;
80578;SDS011;69939;52.402;6.608;2023-09-08T02:34:42;8.90;;;6.13;;
80578;SDS011;69939;52.402;6.608;2023-09-08T02:37:14;11.05;;;6.97;;
80578;SDS011;69939;52.402;6.608;2023-09-08T02:39:44;11.18;;;6.93;;
80578;SDS011;69939;52.402;6.608;2023-09-08T02:42:16;10.95;;;7.47;;
80578;SDS011;69939;52.402;6.608;2023-09-08T02:44:45;9.27;;;6.45;;
80578;SDS011;69939;52.402;6.608;2023-09-08T02:47:14;8.50;;;6.53;;
80578;SDS011;69939;52.402;6.608;2023-09-08T02:49:45;9.32;;;6.85;;
80578;SDS011;69939;52.402;6.608;2023-09-08T02:52:14;8.80;;;6.50;;
80578;SDS011;69939;52.402;6.608;2023-09-08T02:54:45;7.78;;;6.32;;
80578;SDS011;69939;52.402;6.608;2023-09-08T02:57:20;13.57;;;7.65;;
80578;SDS011;69939;52.402;6.608;2023-09-08T02:59:56;11.07;;;7.50;;
80578;SDS011;69939;52.402;6.608;2023-09-08T03:02:25;8.38;;;6.47;;
80578;SDS011;69939;52.402;6.608;2023-09-08T03:04:55;9.40;;;6.35;;
80578;SDS011;69939;52.402;6.608;2023-09-08T03:07:25;11.48;;;7.28;;
80578;SDS011;69939;52.402;6.608;2023-09-08T03:09:55;10.10;;;6.80;;
80578;SDS011;69939;52.402;6.608;2023-09-08T03:12:27;9.88;;;7.28;;
80578;SDS011;69939;52.402;6.608;2023-09-08T03:14:56;12.00;;;7.28;;
80578;SDS011;69939;52.402;6.608;2023-09-08T03:17:25;10.98;;;6.88;;
80578;SDS011;69939;52.402;6.608;2023-09-08T03:19:55;10.88;;;6.82;;
80578;SDS011;69939;52.402;6.608;2023-09-08T03:22:24;9.52;;;7.30;;
80578;SDS011;69939;52.402;6.608;2023-09-08T03:27:23;9.10;;;6.70;;
80578;SDS011;69939;52.402;6.608;2023-09-08T03:29:56;10.77;;;7.45;;
80578;SDS011;69939;52.402;6.608;2023-09-08T03:32:27;10.85;;;7.03;;
80578;SDS011;69939;52.402;6.608;2023-09-08T03:34:57;11.52;;;7.38;;
80578;SDS011;69939;52.402;6.608;2023-09-08T03:37:26;11.10;;;6.93;;
80578;SDS011;69939;52.402;6.608;2023-09-08T03:39:58;9.50;;;7.38;;
80578;SDS011;69939;52.402;6.608;2023-09-08T03:42:29;12.90;;;7.35;;
80578;SDS011;69939;52.402;6.608;2023-09-08T03:45:03;11.68;;;7.43;;
80578;SDS011;69939;52.402;6.608;2023-09-08T03:47:36;14.10;;;8.05;;
80578;SDS011;69939;52.402;6.608;2023-09-08T03:50:06;11.60;;;7.88;;
80578;SDS011;69939;52.402;6.608;2023-09-08T03:52:38;12.07;;;6.85;;
80578;SDS011;69939;52.402;6.608;2023-09-08T03:55:11;10.75;;;7.13;;
80578;SDS011;69939;52.402;6.608;2023-09-08T03:57:40;11.95;;;7.68;;
80578;SDS011;69939;52.402;6.608;2023-09-08T04:00:12;10.82;;;7.55;;
80578;SDS011;69939;52.402;6.608;2023-09-08T04:02:46;11.07;;;7.60;;
80578;SDS011;69939;52.402;6.608;2023-09-08T04:05:17;10.98;;;7.40;;
80578;SDS011;69939;52.402;6.608;2023-09-08T04:07:49;9.75;;;6.93;;
80578;SDS011;69939;52.402;6.608;2023-09-08T04:10:18;10.80;;;7.93;;
80578;SDS011;69939;52.402;6.608;2023-09-08T04:12:47;11.70;;;7.40;;
80578;SDS011;69939;52.402;6.608;2023-09-08T04:15:19;10.07;;;6.82;;
80578;SDS011;69939;52.402;6.608;2023-09-08T04:17:48;9.38;;;6.72;;
80578;SDS011;69939;52.402;6.608;2023-09-08T04:20:18;9.65;;;7.25;;
80578;SDS011;69939;52.402;6.608;2023-09-08T04:22:51;12.35;;;8.07;;
80578;SDS011;69939;52.402;6.608;2023-09-08T04:25:20;12.13;;;8.27;;
80578;SDS011;69939;52.402;6.608;2023-09-08T04:27:51;12.75;;;8.10;;
80578;SDS011;69939;52.402;6.608;2023-09-08T04:30:23;11.70;;;8.73;;
80578;SDS011;69939;52.402;6.608;2023-09-08T04:32:54;12.45;;;8.52;;
80578;SDS011;69939;52.402;6.608;2023-09-08T04:35:29;11.50;;;7.13;;
80578;SDS011;69939;52.402;6.608;2023-09-08T04:37:58;12.50;;;9.25;;
80578;SDS011;69939;52.402;6.608;2023-09-08T04:40:28;13.40;;;8.02;;
80578;SDS011;69939;52.402;6.608;2023-09-08T04:45:30;11.10;;;7.30;;
80578;SDS011;69939;52.402;6.608;2023-09-08T04:47:59;12.48;;;7.00;;
80578;SDS011;69939;52.402;6.608;2023-09-08T04:50:28;11.32;;;8.15;;
80578;SDS011;69939;52.402;6.608;2023-09-08T04:52:57;13.98;;;8.70;;
80578;SDS011;69939;52.402;6.608;2023-09-08T04:55:29;11.02;;;8.27;;
80578;SDS011;69939;52.402;6.608;2023-09-08T04:57:58;14.70;;;8.63;;
80578;SDS011;69939;52.402;6.608;2023-09-08T05:00:31;11.57;;;8.27;;
80578;SDS011;69939;52.402;6.608;2023-09-08T05:03:03;13.38;;;8.40;;
80578;SDS011;69939;52.402;6.608;2023-09-08T05:05:33;15.90;;;8.57;;
80578;SDS011;69939;52.402;6.608;2023-09-08T05:08:02;12.65;;;8.40;;
80578;SDS011;69939;52.402;6.608;2023-09-08T05:10:32;13.73;;;8.00;;
80578;SDS011;69939;52.402;6.608;2023-09-08T05:13:04;10.50;;;7.90;;
80578;SDS011;69939;52.402;6.608;2023-09-08T05:15:54;14.13;;;9.77;;
80578;SDS011;69939;52.402;6.608;2023-09-08T05:18:25;10.48;;;8.13;;
80578;SDS011;69939;52.402;6.608;2023-09-08T05:20:54;11.75;;;8.45;;
80578;SDS011;69939;52.402;6.608;2023-09-08T05:23:24;11.20;;;8.07;;
80578;SDS011;69939;52.402;6.608;2023-09-08T05:25:53;12.07;;;8.60;;
80578;SDS011;69939;52.402;6.608;2023-09-08T05:28:22;12.95;;;8.73;;
80578;SDS011;69939;52.402;6.608;2023-09-08T05:33:23;12.20;;;8.32;;
80578;SDS011;69939;52.402;6.608;2023-09-08T05:35:52;12.00;;;8.15;;
80578;SDS011;69939;52.402;6.608;2023-09-08T05:38:21;11.00;;;7.78;;
80578;SDS011;69939;52.402;6.608;2023-09-08T05:40:50;10.98;;;8.40;;
80578;SDS011;69939;52.402;6.608;2023-09-08T05:43:19;13.05;;;8.70;;
80578;SDS011;69939;52.402;6.608;2023-09-08T05:45:49;14.05;;;8.25;;
80578;SDS011;69939;52.402;6.608;2023-09-08T05:48:21;11.65;;;8.23;;
80578;SDS011;69939;52.402;6.608;2023-09-08T05:50:50;13.57;;;7.95;;
80578;SDS011;69939;52.402;6.608;2023-09-08T05:53:19;12.80;;;8.00;;
80578;SDS011;69939;52.402;6.608;2023-09-08T05:55:48;12.77;;;8.35;;
80578;SDS011;69939;52.402;6.608;2023-09-08T05:58:17;12.05;;;8.90;;
80578;SDS011;69939;52.402;6.608;2023-09-08T06:00:49;11.27;;;8.35;;
80578;SDS011;69939;52.402;6.608;2023-09-08T06:05:51;18.23;;;7.60;;
80578;SDS011;69939;52.402;6.608;2023-09-08T06:08:20;13.50;;;8.10;;
80578;SDS011;69939;52.402;6.608;2023-09-08T06:10:50;13.85;;;8.00;;
80578;SDS011;69939;52.402;6.608;2023-09-08T06:13:19;13.80;;;8.40;;
80578;SDS011;69939;52.402;6.608;2023-09-08T06:18:17;11.45;;;8.27;;
80578;SDS011;69939;52.402;6.608;2023-09-08T06:20:49;14.35;;;8.60;;
80578;SDS011;69939;52.402;6.608;2023-09-08T06:23:19;11.85;;;8.07;;
80578;SDS011;69939;52.402;6.608;2023-09-08T06:25:49;13.43;;;7.75;;
80578;SDS011;69939;52.402;6.608;2023-09-08T06:28:18;10.95;;;7.80;;
80578;SDS011;69939;52.402;6.608;2023-09-08T06:30:47;11.27;;;8.35;;
80578;SDS011;69939;52.402;6.608;2023-09-08T06:33:16;12.20;;;8.50;;
80578;SDS011;69939;52.402;6.608;2023-09-08T06:35:45;11.27;;;7.70;;
80578;SDS011;69939;52.402;6.608;2023-09-08T06:38:18;10.20;;;7.85;;
80578;SDS011;69939;52.402;6.608;2023-09-08T06:40:48;10.23;;;7.85;;
80578;SDS011;69939;52.402;6.608;2023-09-08T06:43:18;9.60;;;8.13;;
80578;SDS011;69939;52.402;6.608;2023-09-08T06:45:47;9.32;;;7.90;;
80578;SDS011;69939;52.402;6.608;2023-09-08T06:48:16;9.57;;;7.57;;
80578;SDS011;69939;52.402;6.608;2023-09-08T06:50:46;9.32;;;8.43;;
80578;SDS011;69939;52.402;6.608;2023-09-08T06:53:21;8.77;;;7.45;;
80578;SDS011;69939;52.402;6.608;2023-09-08T06:55:51;8.75;;;7.38;;
80578;SDS011;69939;52.402;6.608;2023-09-08T06:58:19;9.93;;;7.88;;
80578;SDS011;69939;52.402;6.608;2023-09-08T07:00:49;9.05;;;8.15;;
80578;SDS011;69939;52.402;6.608;2023-09-08T07:03:19;8.55;;;7.70;;
80578;SDS011;69939;52.402;6.608;2023-09-08T07:05:51;8.70;;;7.80;;
80578;SDS011;69939;52.402;6.608;2023-09-08T07:08:21;9.23;;;8.23;;
80578;SDS011;69939;52.402;6.608;2023-09-08T07:10:51;8.60;;;7.80;;
80578;SDS011;69939;52.402;6.608;2023-09-08T07:13:21;8.00;;;6.93;;
80578;SDS011;69939;52.402;6.608;2023-09-08T07:15:50;8.00;;;7.17;;
80578;SDS011;69939;52.402;6.608;2023-09-08T07:18:19;8.07;;;7.28;;
80578;SDS011;69939;52.402;6.608;2023-09-08T07:20:48;7.78;;;7.07;;
80578;SDS011;69939;52.402;6.608;2023-09-08T07:23:21;9.50;;;7.80;;
80578;SDS011;69939;52.402;6.608;2023-09-08T07:25:53;8.85;;;7.43;;
80578;SDS011;69939;52.402;6.608;2023-09-08T07:28:22;8.00;;;7.20;;
80578;SDS011;69939;52.402;6.608;2023-09-08T07:30:51;9.77;;;8.88;;
80578;SDS011;69939;52.402;6.608;2023-09-08T07:33:20;7.70;;;7.00;;
80578;SDS011;69939;52.402;6.608;2023-09-08T07:35:52;9.80;;;7.10;;
80578;SDS011;69939;52.402;6.608;2023-09-08T07:38:21;8.65;;;6.88;;
80578;SDS011;69939;52.402;6.608;2023-09-08T07:40:52;7.45;;;6.68;;
80578;SDS011;69939;52.402;6.608;2023-09-08T07:43:21;7.85;;;7.07;;
80578;SDS011;69939;52.402;6.608;2023-09-08T07:45:50;8.15;;;7.43;;
80578;SDS011;69939;52.402;6.608;2023-09-08T07:48:20;7.72;;;7.03;;
80578;SDS011;69939;52.402;6.608;2023-09-08T07:50:51;8.50;;;6.90;;
80578;SDS011;69939;52.402;6.608;2023-09-08T07:53:21;6.93;;;6.32;;
80578;SDS011;69939;52.402;6.608;2023-09-08T07:55:53;10.43;;;6.32;;
80578;SDS011;69939;52.402;6.608;2023-09-08T07:58:22;8.98;;;6.85;;
80578;SDS011;69939;52.402;6.608;2023-09-08T08:00:51;8.10;;;6.97;;
80578;SDS011;69939;52.402;6.608;2023-09-08T08:03:20;7.05;;;6.35;;
80578;SDS011;69939;52.402;6.608;2023-09-08T08:05:52;7.75;;;6.63;;
80578;SDS011;69939;52.402;6.608;2023-09-08T08:08:21;9.00;;;6.82;;
80578;SDS011;69939;52.402;6.608;2023-09-08T08:10:50;7.13;;;6.53;;
80578;SDS011;69939;52.402;6.608;2023-09-08T08:13:19;8.02;;;5.65;;
80578;SDS011;69939;52.402;6.608;2023-09-08T08:15:48;6.93;;;6.25;;
80578;SDS011;69939;52.402;6.608;2023-09-08T08:18:17;6.13;;;5.53;;
80578;SDS011;69939;52.402;6.608;2023-09-08T08:20:46;8.27;;;5.25;;
80578;SDS011;69939;52.402;6.608;2023-09-08T08:23:18;7.72;;;6.85;;
80578;SDS011;69939;52.402;6.608;2023-09-08T08:25:48;6.30;;;5.30;;
80578;SDS011;69939;52.402;6.608;2023-09-08T08:28:17;6.72;;;5.53;;
80578;SDS011;69939;52.402;6.608;2023-09-08T08:30:46;5.75;;;5.25;;
80578;SDS011;69939;52.402;6.608;2023-09-08T08:33:15;6.05;;;5.35;;
80578;SDS011;69939;52.402;6.608;2023-09-08T08:35:48;5.70;;;5.07;;
80578;SDS011;69939;52.402;6.608;2023-09-08T08:38:20;12.90;;;7.57;;
80578;SDS011;69939;52.402;6.608;2023-09-08T08:40:49;7.00;;;5.90;;
80578;SDS011;69939;52.402;6.608;2023-09-08T08:43:18;6.30;;;5.68;;
80578;SDS011;69939;52.402;6.608;2023-09-08T08:45:50;5.50;;;4.93;;
80578;SDS011;69939;52.402;6.608;2023-09-08T08:48:22;7.30;;;5.05;;
80578;SDS011;69939;52.402;6.608;2023-09-08T08:50:54;5.30;;;4.80;;
80578;SDS011;69939;52.402;6.608;2023-09-08T08:53:28;5.95;;;5.22;;
80578;SDS011;69939;52.402;6.608;2023-09-08T08:55:59;7.95;;;4.95;;
80578;SDS011;69939;52.402;6.608;2023-09-08T08:58:31;5.28;;;4.78;;
80578;SDS011;69939;52.402;6.608;2023-09-08T09:01:00;5.47;;;4.97;;
80578;SDS011;69939;52.402;6.608;2023-09-08T09:03:31;7.80;;;5.35;;
80578;SDS011;69939;52.402;6.608;2023-09-08T09:06:03;7.25;;;4.70;;
80578;SDS011;69939;52.402;6.608;2023-09-08T09:08:35;6.22;;;5.63;;
80578;SDS011;69939;52.402;6.608;2023-09-08T09:11:08;5.68;;;4.60;;
80578;SDS011;69939;52.402;6.608;2023-09-08T09:13:37;6.80;;;4.55;;
80578;SDS011;69939;52.402;6.608;2023-09-08T09:16:06;5.28;;;4.78;;
80578;SDS011;69939;52.402;6.608;2023-09-08T09:18:46;5.82;;;5.05;;
80578;SDS011;69939;52.402;6.608;2023-09-08T09:21:23;4.88;;;4.47;;
80578;SDS011;69939;52.402;6.608;2023-09-08T09:23:57;6.25;;;5.03;;
80578;SDS011;69939;52.402;6.608;2023-09-08T09:26:26;5.50;;;5.00;;
80578;SDS011;69939;52.402;6.608;2023-09-08T09:28:55;6.55;;;4.75;;
80578;SDS011;69939;52.402;6.608;2023-09-08T09:31:24;5.13;;;4.63;;
80578;SDS011;69939;52.402;6.608;2023-09-08T09:34:01;5.30;;;4.68;;
80578;SDS011;69939;52.402;6.608;2023-09-08T09:36:32;7.07;;;5.05;;
80578;SDS011;69939;52.402;6.608;2023-09-08T09:39:04;5.22;;;4.72;;
80578;SDS011;69939;52.402;6.608;2023-09-08T09:41:33;5.43;;;4.93;;
80578;SDS011;69939;52.402;6.608;2023-09-08T09:44:02;6.90;;;6.18;;
80578;SDS011;69939;52.402;6.608;2023-09-08T09:46:33;7.60;;;5.03;;
80578;SDS011;69939;52.402;6.608;2023-09-08T09:49:02;5.60;;;5.10;;
80578;SDS011;69939;52.402;6.608;2023-09-08T09:51:31;8.10;;;5.45;;
80578;SDS011;69939;52.402;6.608;2023-09-08T09:54:11;6.50;;;5.80;;
80578;SDS011;69939;52.402;6.608;2023-09-08T09:56:41;7.38;;;5.10;;
80578;SDS011;69939;52.402;6.608;2023-09-08T09:59:12;5.70;;;5.00;;
80578;SDS011;69939;52.402;6.608;2023-09-08T10:01:43;5.80;;;4.68;;
80578;SDS011;69939;52.402;6.608;2023-09-08T10:04:13;4.93;;;4.43;;
80578;SDS011;69939;52.402;6.608;2023-09-08T10:06:43;8.80;;;5.57;;
80578;SDS011;69939;52.402;6.608;2023-09-08T10:09:16;5.53;;;4.82;;
80578;SDS011;69939;52.402;6.608;2023-09-08T10:11:48;7.18;;;5.63;;
80578;SDS011;69939;52.402;6.608;2023-09-08T10:14:19;5.15;;;4.70;;
80578;SDS011;69939;52.402;6.608;2023-09-08T10:16:50;8.75;;;5.05;;
80578;SDS011;69939;52.402;6.608;2023-09-08T10:19:24;5.30;;;4.65;;
80578;SDS011;69939;52.402;6.608;2023-09-08T10:21:59;4.50;;;4.13;;
80578;SDS011;69939;52.402;6.608;2023-09-08T10:24:35;6.85;;;5.45;;
80578;SDS011;69939;52.402;6.608;2023-09-08T10:27:08;6.28;;;4.72;;
80578;SDS011;69939;52.402;6.608;2023-09-08T10:29:39;4.97;;;4.50;;
80578;SDS011;69939;52.402;6.608;2023-09-08T10:32:09;5.50;;;4.90;;
80578;SDS011;69939;52.402;6.608;2023-09-08T10:34:39;5.53;;;4.55;;
80578;SDS011;69939;52.402;6.608;2023-09-08T10:37:19;6.30;;;5.55;;
80578;SDS011;69939;52.402;6.608;2023-09-08T10:39:53;5.28;;;4.78;;
80578;SDS011;69939;52.402;6.608;2023-09-08T10:42:22;6.28;;;4.65;;
80578;SDS011;69939;52.402;6.608;2023-09-08T10:44:57;5.40;;;4.90;;
80578;SDS011;69939;52.402;6.608;2023-09-08T10:47:34;4.72;;;4.32;;
80578;SDS011;69939;52.402;6.608;2023-09-08T10:50:26;4.97;;;4.50;;
80578;SDS011;69939;52.402;6.608;2023-09-08T10:53:15;5.43;;;4.93;;
80578;SDS011;69939;52.402;6.608;2023-09-08T10:55:50;6.28;;;4.57;;
80578;SDS011;69939;52.402;6.608;2023-09-08T10:58:29;5.68;;;5.15;;
80578;SDS011;69939;52.402;6.608;2023-09-08T11:01:02;5.70;;;4.50;;
80578;SDS011;69939;52.402;6.608;2023-09-08T11:06:19;5.22;;;4.15;;
80578;SDS011;69939;52.402;6.608;2023-09-08T11:08:55;7.35;;;5.80;;
80578;SDS011;69939;52.402;6.608;2023-09-08T11:11:27;6.00;;;5.35;;
80578;SDS011;69939;52.402;6.608;2023-09-08T11:13:56;4.85;;;4.45;;
80578;SDS011;69939;52.402;6.608;2023-09-08T11:16:25;5.45;;;4.40;;
80578;SDS011;69939;52.402;6.608;2023-09-08T11:18:56;6.32;;;4.63;;
80578;SDS011;69939;52.402;6.608;2023-09-08T11:21:26;5.03;;;4.45;;
80578;SDS011;69939;52.402;6.608;2023-09-08T11:23:59;5.32;;;4.07;;
80578;SDS011;69939;52.402;6.608;2023-09-08T11:26:35;5.28;;;4.78;;
80578;SDS011;69939;52.402;6.608;2023-09-08T11:29:05;5.30;;;4.80;;
80578;SDS011;69939;52.402;6.608;2023-09-08T11:31:34;7.95;;;4.30;;
80578;SDS011;69939;52.402;6.608;2023-09-08T11:34:04;4.47;;;4.07;;
80578;SDS011;69939;52.402;6.608;2023-09-08T11:36:34;5.43;;;4.82;;
80578;SDS011;69939;52.402;6.608;2023-09-08T11:39:04;4.53;;;4.13;;
80578;SDS011;69939;52.402;6.608;2023-09-08T11:41:38;5.35;;;4.32;;
80578;SDS011;69939;52.402;6.608;2023-09-08T11:44:07;5.82;;;5.18;;
80578;SDS011;69939;52.402;6.608;2023-09-08T11:46:37;5.20;;;4.38;;
80578;SDS011;69939;52.402;6.608;2023-09-08T11:49:06;6.55;;;4.60;;
80578;SDS011;69939;52.402;6.608;2023-09-08T11:51:36;5.18;;;4.28;;
80578;SDS011;69939;52.402;6.608;2023-09-08T11:54:05;5.30;;;4.05;;
80578;SDS011;69939;52.402;6.608;2023-09-08T11:56:34;6.35;;;4.50;;
80578;SDS011;69939;52.402;6.608;2023-09-08T11:59:06;5.80;;;4.25;;
80578;SDS011;69939;52.402;6.608;2023-09-08T12:01:36;5.10;;;4.57;;
80578;SDS011;69939;52.402;6.608;2023-09-08T12:04:06;5.75;;;4.43;;
80578;SDS011;69939;52.402;6.608;2023-09-08T12:06:35;5.43;;;4.15;;
80578;SDS011;69939;52.402;6.608;2023-09-08T12:09:04;4.90;;;3.83;;
80578;SDS011;69939;52.402;6.608;2023-09-08T12:11:33;4.40;;;4.00;;
80578;SDS011;69939;52.402;6.608;2023-09-08T12:14:09;5.47;;;4.57;;
80578;SDS011;69939;52.402;6.608;2023-09-08T12:16:40;5.65;;;4.70;;
80578;SDS011;69939;52.402;6.608;2023-09-08T12:22:00;5.38;;;4.85;;
80578;SDS011;69939;52.402;6.608;2023-09-08T12:29:59;5.15;;;4.55;;
80578;SDS011;69939;52.402;6.608;2023-09-08T12:32:30;5.90;;;4.38;;
80578;SDS011;69939;52.402;6.608;2023-09-08T12:35:02;4.93;;;4.53;;
80578;SDS011;69939;52.402;6.608;2023-09-08T12:37:33;4.90;;;4.50;;
80578;SDS011;69939;52.402;6.608;2023-09-08T12:40:03;5.63;;;5.03;;
80578;SDS011;69939;52.402;6.608;2023-09-08T12:42:34;5.20;;;4.55;;
80578;SDS011;69939;52.402;6.608;2023-09-08T12:45:07;4.97;;;3.92;;
80578;SDS011;69939;52.402;6.608;2023-09-08T12:47:37;5.65;;;4.38;;
80578;SDS011;69939;52.402;6.608;2023-09-08T12:50:08;4.80;;;4.15;;
80578;SDS011;69939;52.402;6.608;2023-09-08T12:52:38;6.32;;;4.72;;
80578;SDS011;69939;52.402;6.608;2023-09-08T12:55:08;4.85;;;4.38;;
80578;SDS011;69939;52.402;6.608;2023-09-08T12:57:38;5.18;;;3.85;;
80578;SDS011;69939;52.402;6.608;2023-09-08T13:00:10;4.97;;;4.55;;
80578;SDS011;69939;52.402;6.608;2023-09-08T13:02:43;6.03;;;4.60;;
80578;SDS011;69939;52.402;6.608;2023-09-08T13:05:12;4.60;;;4.20;;
80578;SDS011;69939;52.402;6.608;2023-09-08T13:07:42;5.15;;;4.65;;
80578;SDS011;69939;52.402;6.608;2023-09-08T13:10:11;8.57;;;4.65;;
80578;SDS011;69939;52.402;6.608;2023-09-08T13:12:40;7.40;;;4.75;;
80578;SDS011;69939;52.402;6.608;2023-09-08T13:15:13;5.75;;;4.28;;
80578;SDS011;69939;52.402;6.608;2023-09-08T13:17:43;5.15;;;4.60;;
80578;SDS011;69939;52.402;6.608;2023-09-08T13:20:12;5.20;;;4.70;;
80578;SDS011;69939;52.402;6.608;2023-09-08T13:22:41;5.88;;;5.38;;
80578;SDS011;69939;52.402;6.608;2023-09-08T13:25:10;6.13;;;4.45;;
80578;SDS011;69939;52.402;6.608;2023-09-08T13:27:40;7.85;;;5.00;;
80578;SDS011;69939;52.402;6.608;2023-09-08T13:30:13;4.97;;;4.20;;
80578;SDS011;69939;52.402;6.608;2023-09-08T13:32:44;5.18;;;4.68;;
80578;SDS011;69939;52.402;6.608;2023-09-08T13:35:13;5.65;;;4.82;;
80578;SDS011;69939;52.402;6.608;2023-09-08T13:37:44;5.00;;;4.60;;
80578;SDS011;69939;52.402;6.608;2023-09-08T13:40:13;5.38;;;4.78;;
80578;SDS011;69939;52.402;6.608;2023-09-08T13:42:42;5.57;;;4.43;;
80578;SDS011;69939;52.402;6.608;2023-09-08T13:45:15;5.18;;;4.68;;
80578;SDS011;69939;52.402;6.608;2023-09-08T13:47:44;4.25;;;3.95;;
80578;SDS011;69939;52.402;6.608;2023-09-08T13:50:13;5.70;;;5.20;;
80578;SDS011;69939;52.402;6.608;2023-09-08T13:52:42;6.07;;;5.05;;
80578;SDS011;69939;52.402;6.608;2023-09-08T13:55:11;6.10;;;5.45;;
80578;SDS011;69939;52.402;6.608;2023-09-08T13:57:40;7.93;;;5.05;;
80578;SDS011;69939;52.402;6.608;2023-09-08T14:00:10;5.90;;;5.30;;
80578;SDS011;69939;52.402;6.608;2023-09-08T14:02:44;5.30;;;4.72;;
80578;SDS011;69939;52.402;6.608;2023-09-08T14:05:13;6.32;;;5.80;;
80578;SDS011;69939;52.402;6.608;2023-09-08T14:07:42;6.32;;;5.72;;
80578;SDS011;69939;52.402;6.608;2023-09-08T14:10:11;7.30;;;6.03;;
80578;SDS011;69939;52.402;6.608;2023-09-08T14:12:41;5.70;;;5.13;;
80578;SDS011;69939;52.402;6.608;2023-09-08T14:15:10;5.47;;;4.93;;
80578;SDS011;69939;52.402;6.608;2023-09-08T14:17:44;5.57;;;4.95;;
80578;SDS011;69939;52.402;6.608;2023-09-08T14:20:13;5.85;;;4.65;;
80578;SDS011;69939;52.402;6.608;2023-09-08T14:22:42;9.73;;;6.18;;
80578;SDS011;69939;52.402;6.608;2023-09-08T14:25:12;5.40;;;4.90;;
80578;SDS011;69939;52.402;6.608;2023-09-08T14:27:41;5.43;;;4.72;;
80578;SDS011;69939;52.402;6.608;2023-09-08T14:30:10;5.80;;;4.47;;
80578;SDS011;69939;52.402;6.608;2023-09-08T14:32:40;6.75;;;5.28;;
80578;SDS011;69939;52.402;6.608;2023-09-08T14:35:11;7.38;;;5.35;;
80578;SDS011;69939;52.402;6.608;2023-09-08T14:37:41;5.60;;;5.00;;
80578;SDS011;69939;52.402;6.608;2023-09-08T14:40:10;6.25;;;5.60;;
80578;SDS011;69939;52.402;6.608;2023-09-08T14:42:40;5.88;;;5.10;;
80578;SDS011;69939;52.402;6.608;2023-09-08T14:45:10;7.22;;;5.50;;
80578;SDS011;69939;52.402;6.608;2023-09-08T14:47:40;7.45;;;5.20;;
80578;SDS011;69939;52.402;6.608;2023-09-08T14:50:11;6.28;;;5.07;;
80578;SDS011;69939;52.402;6.608;2023-09-08T14:52:41;8.82;;;6.28;;
80578;SDS011;69939;52.402;6.608;2023-09-08T14:55:10;9.25;;;6.30;;
80578;SDS011;69939;52.402;6.608;2023-09-08T14:57:39;7.18;;;5.75;;
80578;SDS011;69939;52.402;6.608;2023-09-08T15:00:09;6.78;;;5.55;;
80578;SDS011;69939;52.402;6.608;2023-09-08T15:02:41;5.18;;;4.78;;
80578;SDS011;69939;52.402;6.608;2023-09-08T15:05:13;5.45;;;4.95;;
80578;SDS011;69939;52.402;6.608;2023-09-08T15:07:42;7.13;;;6.50;;
80578;SDS011;69939;52.402;6.608;2023-09-08T15:10:11;5.88;;;5.22;;
80578;SDS011;69939;52.402;6.608;2023-09-08T15:12:40;17.40;;;13.82;;
80578;SDS011;69939;52.402;6.608;2023-09-08T15:15:09;11.25;;;8.82;;
80578;SDS011;69939;52.402;6.608;2023-09-08T15:17:39;28.63;;;23.02;;
80578;SDS011;69939;52.402;6.608;2023-09-08T15:20:08;26.58;;;22.40;;
80578;SDS011;69939;52.402;6.608;2023-09-08T15:22:41;14.25;;;12.75;;
80578;SDS011;69939;52.402;6.608;2023-09-08T15:25:11;15.48;;;13.70;;
80578;SDS011;69939;52.402;6.608;2023-09-08T15:27:40;17.17;;;13.48;;
80578;SDS011;69939;52.402;6.608;2023-09-08T15:30:12;6.07;;;5.45;;